createdAt,value
2017-11-19T00:02:09.690Z,83.13
2017-11-19T00:04:37.253Z,83.37
2017-11-19T00:07:04.745Z,84.07
2017-11-19T00:09:32.273Z,83.71
2017-11-19T00:11:59.761Z,83.75
2017-11-19T00:14:27.272Z,83.28
2017-11-19T00:16:54.812Z,83.14
2017-11-19T00:19:22.306Z,83.42
2017-11-19T00:21:49.800Z,82.79
2017-11-19T00:24:17.317Z,82.66
2017-11-19T00:26:44.803Z,83.13
2017-11-19T00:29:12.325Z,82.90
2017-11-19T00:31:39.893Z,83.20
2017-11-19T00:34:07.387Z,83.72
2017-11-19T00:36:34.899Z,82.92
2017-11-19T00:39:02.385Z,83.20
2017-11-19T00:41:29.905Z,82.82
2017-11-19T00:43:58.414Z,83.04
2017-11-19T00:46:25.909Z,83.10
2017-11-19T00:48:53.464Z,83.35
2017-11-19T00:51:20.990Z,83.29
2017-11-19T00:53:48.477Z,83.57
2017-11-19T00:56:16.102Z,83.15
2017-11-19T00:58:43.592Z,83.35
2017-11-19T01:01:11.104Z,83.37
2017-11-19T01:03:38.669Z,83.87
2017-11-19T01:06:06.154Z,83.73
2017-11-19T01:08:33.647Z,84.07
2017-11-19T01:11:01.173Z,83.94
2017-11-19T01:13:28.663Z,84.57
2017-11-19T01:15:56.156Z,84.50
2017-11-19T01:18:23.693Z,84.25
2017-11-19T01:20:51.181Z,84.57
2017-11-19T01:23:18.675Z,84.62
2017-11-19T01:25:46.206Z,84.92
2017-11-19T01:28:13.690Z,85.13
2017-11-19T01:30:41.180Z,84.99
2017-11-19T01:33:08.725Z,85.22
2017-11-19T01:35:36.228Z,85.61
2017-11-19T01:38:03.788Z,85.74
2017-11-19T01:40:31.310Z,85.50
2017-11-19T01:42:58.805Z,85.13
2017-11-19T01:45:26.336Z,85.08
2017-11-19T01:47:53.820Z,85.26
2017-11-19T01:50:21.309Z,85.05
2017-11-19T01:52:48.844Z,85.28
2017-11-19T01:55:16.333Z,85.29
2017-11-19T01:57:43.823Z,84.88
2017-11-19T02:00:11.344Z,85.17
2017-11-19T02:02:38.829Z,85.09
2017-11-19T02:05:06.421Z,85.02
2017-11-19T02:07:33.934Z,85.35
2017-11-19T02:10:01.433Z,85.48
2017-11-19T02:12:29.005Z,84.98
2017-11-19T02:14:56.501Z,85.72
2017-11-19T02:17:23.985Z,84.39
2017-11-19T02:19:55.467Z,84.48
2017-11-19T02:22:22.953Z,84.21
2017-11-19T02:24:50.432Z,84.02
2017-11-19T02:27:18.047Z,83.64
2017-11-19T02:29:45.533Z,83.78
2017-11-19T02:32:13.027Z,84.28
2017-11-19T02:34:40.619Z,84.34
2017-11-19T02:37:08.085Z,84.65
2017-11-19T02:39:35.661Z,84.42
2017-11-19T02:42:03.183Z,83.83
2017-11-19T02:44:30.680Z,84.92
2017-11-19T02:46:58.221Z,84.34
2017-11-19T02:49:25.714Z,85.45
2017-11-19T02:51:53.201Z,85.04
2017-11-19T02:54:20.793Z,84.83
2017-11-19T02:56:48.347Z,84.93
2017-11-19T02:59:15.838Z,84.73
2017-11-19T03:01:43.374Z,84.90
2017-11-19T03:04:10.864Z,85.24
2017-11-19T03:06:38.359Z,85.11
2017-11-19T03:09:05.896Z,85.58
2017-11-19T03:11:33.398Z,86.03
2017-11-19T03:14:00.960Z,85.78
2017-11-19T03:16:28.512Z,85.53
2017-11-19T03:18:56.090Z,85.00
2017-11-19T03:21:23.573Z,85.27
2017-11-19T03:23:51.090Z,83.97
2017-11-19T03:26:18.754Z,84.36
2017-11-19T03:28:46.238Z,83.77
2017-11-19T03:31:13.727Z,83.72
2017-11-19T03:33:41.244Z,84.12
2017-11-19T03:36:08.729Z,83.67
2017-11-19T03:38:36.222Z,83.68
2017-11-19T03:41:03.741Z,83.16
2017-11-19T03:43:31.223Z,83.18
2017-11-19T03:45:58.719Z,83.57
2017-11-19T03:48:26.284Z,83.17
2017-11-19T03:50:54.284Z,83.28
2017-11-19T03:53:21.911Z,83.60
2017-11-19T03:55:49.398Z,84.29
2017-11-19T03:58:16.885Z,83.66
2017-11-19T04:00:44.422Z,82.96
2017-11-19T04:03:11.917Z,82.79
2017-11-19T04:05:39.509Z,82.70
2017-11-19T04:08:07.021Z,82.73
2017-11-19T04:10:34.621Z,83.07
2017-11-19T04:13:02.154Z,82.34
2017-11-19T04:15:29.655Z,82.41
2017-11-19T04:17:57.150Z,82.67
2017-11-19T04:20:24.679Z,82.25
2017-11-19T04:22:52.204Z,82.47
2017-11-19T04:25:19.689Z,82.53
2017-11-19T04:27:47.349Z,82.58
2017-11-19T04:30:14.851Z,82.88
2017-11-19T04:32:42.446Z,82.71
2017-11-19T04:35:10.016Z,82.90
2017-11-19T04:37:37.513Z,83.01
2017-11-19T04:40:05.045Z,83.04
2017-11-19T04:42:32.560Z,83.17
2017-11-19T04:45:00.096Z,82.78
2017-11-19T04:47:27.593Z,82.69
2017-11-19T04:49:55.101Z,81.98
2017-11-19T04:52:22.622Z,82.16
2017-11-19T04:54:50.118Z,82.18
2017-11-19T04:57:17.615Z,82.24
2017-11-19T04:59:45.149Z,82.97
2017-11-19T05:02:12.638Z,82.14
2017-11-19T05:04:40.126Z,82.52
2017-11-19T05:07:07.671Z,82.29
2017-11-19T05:09:35.223Z,83.11
2017-11-19T05:12:02.724Z,82.78
2017-11-19T05:14:30.346Z,83.52
2017-11-19T05:16:57.840Z,82.27
2017-11-19T05:19:25.374Z,82.51
2017-11-19T05:21:52.888Z,82.30
2017-11-19T05:24:20.373Z,82.20
2017-11-19T05:26:47.865Z,82.16
2017-11-19T05:29:15.397Z,81.78
2017-11-19T05:31:42.922Z,81.91
2017-11-19T05:34:10.412Z,81.90
2017-11-19T05:36:37.973Z,81.92
2017-11-19T05:39:05.496Z,81.46
2017-11-19T05:41:33.096Z,81.75
2017-11-19T05:44:00.616Z,81.41
2017-11-19T05:46:28.145Z,82.06
2017-11-19T05:48:55.630Z,82.10
2017-11-19T05:51:23.124Z,81.86
2017-11-19T05:53:50.660Z,81.99
2017-11-19T05:56:18.238Z,81.65
2017-11-19T05:58:45.734Z,81.31
2017-11-19T06:01:13.461Z,81.14
2017-11-19T06:03:40.961Z,80.88
2017-11-19T06:06:08.449Z,80.77
2017-11-19T06:08:36.010Z,81.08
2017-11-19T06:11:03.500Z,82.65
2017-11-19T06:13:30.988Z,83.58
2017-11-19T06:15:58.510Z,84.03
2017-11-19T06:18:26.038Z,84.66
2017-11-19T06:20:53.531Z,85.01
2017-11-19T06:23:21.023Z,84.45
2017-11-19T06:25:48.540Z,83.66
2017-11-19T06:28:16.027Z,84.32
2017-11-19T06:30:43.524Z,84.19
2017-11-19T06:33:11.038Z,84.28
2017-11-19T06:35:38.529Z,83.21
2017-11-19T06:38:06.133Z,83.46
2017-11-19T06:40:33.650Z,82.90
2017-11-19T06:43:01.153Z,82.88
2017-11-19T06:45:28.685Z,82.46
2017-11-19T06:47:56.184Z,82.32
2017-11-19T06:50:23.681Z,82.33
2017-11-19T06:52:51.213Z,82.39
2017-11-19T06:55:18.699Z,82.25
2017-11-19T06:57:46.207Z,82.57
2017-11-19T07:00:13.724Z,81.72
2017-11-19T07:02:41.227Z,81.64
2017-11-19T07:05:08.713Z,81.92
2017-11-19T07:07:36.259Z,81.58
2017-11-19T07:10:03.768Z,81.56
2017-11-19T07:12:31.779Z,81.32
2017-11-19T07:14:59.316Z,81.86
2017-11-19T07:17:26.898Z,81.94
2017-11-19T07:19:54.380Z,81.14
2017-11-19T07:22:22.049Z,81.03
2017-11-19T07:24:49.582Z,81.16
2017-11-19T07:27:17.072Z,80.90
2017-11-19T07:29:44.660Z,81.31
2017-11-19T07:32:12.176Z,80.87
2017-11-19T07:34:39.674Z,80.84
2017-11-19T07:37:07.201Z,80.81
2017-11-19T07:39:34.701Z,80.46
2017-11-19T07:42:02.211Z,80.64
2017-11-19T07:44:30.503Z,80.48
2017-11-19T07:46:58.040Z,80.41
2017-11-19T07:49:25.553Z,80.07
2017-11-19T07:51:53.055Z,80.27
2017-11-19T07:54:20.606Z,79.90
2017-11-19T07:56:48.095Z,80.30
2017-11-19T07:59:15.802Z,80.08
2017-11-19T08:01:43.346Z,80.09
2017-11-19T08:04:10.849Z,80.34
2017-11-19T08:06:38.337Z,80.38
2017-11-19T08:09:05.868Z,80.50
2017-11-19T08:11:33.374Z,79.71
2017-11-19T08:14:00.948Z,79.35
2017-11-19T08:16:28.530Z,78.96
2017-11-19T08:18:56.173Z,78.56
2017-11-19T08:21:23.680Z,78.38
2017-11-19T08:23:51.190Z,78.53
2017-11-19T08:26:18.740Z,78.48
2017-11-19T08:28:46.220Z,78.67
2017-11-19T08:31:13.744Z,78.17
2017-11-19T08:33:41.316Z,78.00
2017-11-19T08:36:08.846Z,78.31
2017-11-19T08:38:36.380Z,78.08
2017-11-19T08:41:03.871Z,77.80
2017-11-19T08:43:31.389Z,77.77
2017-11-19T08:45:58.914Z,77.31
2017-11-19T08:48:26.414Z,77.74
2017-11-19T08:50:53.933Z,77.73
2017-11-19T08:53:21.501Z,77.45
2017-11-19T08:55:48.996Z,77.29
2017-11-19T08:58:16.534Z,77.30
2017-11-19T09:00:44.029Z,76.99
2017-11-19T09:03:11.531Z,77.02
2017-11-19T09:05:39.078Z,76.79
2017-11-19T09:08:06.557Z,77.19
2017-11-19T09:10:34.048Z,77.00
2017-11-19T09:13:01.578Z,77.07
2017-11-19T09:15:29.062Z,76.85
2017-11-19T09:17:56.548Z,77.42
2017-11-19T09:20:24.071Z,77.38
2017-11-19T09:22:52.416Z,77.12
2017-11-19T09:25:19.969Z,78.35
2017-11-19T09:27:47.493Z,77.71
2017-11-19T09:30:14.989Z,77.65
2017-11-19T09:32:42.533Z,77.29
2017-11-19T09:35:10.068Z,77.64
2017-11-19T09:37:38.442Z,77.17
2017-11-19T09:40:05.934Z,77.82
2017-11-19T09:42:33.515Z,77.97
2017-11-19T09:45:01.038Z,78.69
2017-11-19T09:47:28.532Z,77.98
2017-11-19T09:49:56.197Z,78.56
2017-11-19T09:52:23.699Z,77.93
2017-11-19T09:54:51.198Z,77.82
2017-11-19T09:57:18.750Z,77.62
2017-11-19T09:59:46.262Z,77.33
2017-11-19T10:02:13.760Z,77.71
2017-11-19T10:04:41.325Z,77.60
2017-11-19T10:07:08.902Z,76.88
2017-11-19T10:09:36.664Z,76.95
2017-11-19T10:12:04.986Z,76.83
2017-11-19T10:14:32.468Z,77.09
2017-11-19T10:17:00.879Z,78.15
2017-11-19T10:19:28.387Z,78.30
2017-11-19T10:21:55.873Z,78.77
2017-11-19T10:24:23.389Z,79.80
2017-11-19T10:26:50.925Z,80.94
2017-11-19T10:29:18.417Z,81.41
2017-11-19T10:31:45.979Z,81.60
2017-11-19T10:34:13.505Z,83.18
2017-11-19T10:36:41.008Z,82.83
2017-11-19T10:39:08.510Z,83.45
2017-11-19T10:41:36.038Z,82.81
2017-11-19T10:44:03.542Z,82.58
2017-11-19T10:46:31.045Z,82.46
2017-11-19T10:48:58.599Z,82.46
2017-11-19T10:51:26.100Z,82.08
2017-11-19T10:53:53.601Z,82.33
2017-11-19T10:56:21.150Z,82.47
2017-11-19T10:58:48.675Z,82.22
2017-11-19T11:01:16.230Z,81.92
2017-11-19T11:03:43.894Z,80.77
2017-11-19T11:06:11.390Z,80.43
2017-11-19T11:08:38.903Z,80.60
2017-11-19T11:11:06.433Z,80.35
2017-11-19T11:13:35.061Z,80.05
2017-11-19T11:16:02.565Z,80.12
2017-11-19T11:18:30.097Z,80.01
2017-11-19T11:20:57.598Z,80.57
2017-11-19T11:23:25.110Z,80.28
2017-11-19T11:25:52.633Z,79.72
2017-11-19T11:28:20.140Z,79.47
2017-11-19T11:30:47.675Z,79.61
2017-11-19T11:33:15.183Z,80.04
2017-11-19T11:35:42.674Z,78.09
2017-11-19T11:38:10.551Z,77.14
2017-11-19T11:40:38.570Z,76.35
2017-11-19T11:43:06.073Z,77.06
2017-11-19T11:45:33.617Z,77.53
2017-11-19T11:48:01.106Z,77.61
2017-11-19T11:50:29.406Z,76.65
2017-11-19T11:52:56.959Z,77.23
2017-11-19T11:55:25.167Z,77.09
2017-11-19T11:57:52.641Z,77.14
2017-11-19T12:00:20.186Z,77.12
2017-11-19T12:02:47.673Z,77.74
2017-11-19T12:05:15.171Z,78.87
2017-11-19T12:07:43.331Z,79.51
2017-11-19T12:10:10.824Z,79.79
2017-11-19T12:12:38.341Z,81.16
2017-11-19T12:15:05.952Z,81.82
2017-11-19T12:17:33.465Z,81.99
2017-11-19T12:20:00.966Z,81.95
2017-11-19T12:22:28.531Z,82.17
2017-11-19T12:24:56.027Z,82.82
2017-11-19T12:27:23.557Z,84.71
2017-11-19T12:29:51.094Z,84.21
2017-11-19T12:32:18.670Z,86.30
2017-11-19T12:34:46.174Z,86.73
2017-11-19T12:37:13.737Z,87.59
2017-11-19T12:39:41.233Z,86.61
2017-11-19T12:42:08.734Z,86.77
2017-11-19T12:44:36.370Z,86.41
2017-11-19T12:47:03.853Z,86.01
2017-11-19T12:49:31.354Z,86.17
2017-11-19T12:51:58.866Z,86.24
2017-11-19T12:54:26.340Z,86.36
2017-11-19T12:56:55.083Z,86.13
2017-11-19T12:59:22.626Z,86.27
2017-11-19T13:01:50.109Z,86.91
2017-11-19T13:04:18.890Z,86.58
2017-11-19T13:06:46.386Z,85.89
2017-11-19T13:09:13.877Z,86.13
2017-11-19T13:11:41.414Z,84.60
2017-11-19T13:14:08.947Z,84.58
2017-11-19T13:16:36.481Z,84.37
2017-11-19T13:19:04.437Z,84.38
2017-11-19T13:21:31.943Z,82.70
2017-11-19T13:23:59.441Z,83.28
2017-11-19T13:26:26.959Z,83.15
2017-11-19T13:28:54.446Z,83.59
2017-11-19T13:31:21.920Z,83.29
2017-11-19T13:33:49.757Z,83.89
2017-11-19T13:36:17.270Z,84.33
2017-11-19T13:38:44.808Z,84.62
2017-11-19T13:41:12.321Z,84.38
2017-11-19T13:43:39.802Z,83.85
2017-11-19T13:46:07.344Z,83.95
2017-11-19T13:48:35.545Z,84.35
2017-11-19T13:51:03.024Z,84.30
2017-11-19T13:53:30.568Z,83.86
2017-11-19T13:55:58.047Z,84.44
2017-11-19T13:58:25.581Z,84.47
2017-11-19T14:00:53.109Z,84.47
2017-11-19T14:03:20.606Z,83.60
2017-11-19T14:05:48.110Z,84.57
2017-11-19T14:08:15.668Z,85.95
2017-11-19T14:10:43.156Z,86.22
2017-11-19T14:13:10.652Z,86.70
2017-11-19T14:15:38.183Z,86.72
2017-11-19T14:18:05.677Z,86.65
2017-11-19T14:20:33.185Z,86.72
2017-11-19T14:23:00.724Z,86.90
2017-11-19T14:25:28.217Z,86.00
2017-11-19T14:27:55.710Z,86.08
2017-11-19T14:30:23.218Z,86.49
2017-11-19T14:32:50.701Z,85.91
2017-11-19T14:35:18.220Z,88.28
2017-11-19T14:37:45.704Z,83.87
2017-11-19T14:40:13.176Z,82.57
2017-11-19T14:42:43.067Z,81.42
2017-11-19T14:45:11.105Z,82.54
2017-11-19T14:47:39.513Z,83.69
2017-11-19T14:50:08.281Z,84.61
2017-11-19T14:52:36.876Z,85.08
2017-11-19T14:55:05.244Z,85.54
2017-11-19T14:57:32.878Z,85.20
2017-11-19T15:00:01.267Z,85.45
2017-11-19T15:02:29.775Z,85.78
2017-11-19T15:04:59.347Z,86.39
2017-11-19T15:07:29.255Z,85.70
2017-11-19T15:09:57.957Z,85.68
2017-11-19T15:12:26.668Z,85.33
2017-11-19T15:14:55.266Z,85.54
2017-11-19T15:17:24.201Z,84.93
2017-11-19T15:19:52.524Z,85.06
2017-11-19T15:22:21.210Z,84.64
2017-11-19T15:24:50.510Z,84.24
2017-11-19T15:27:18.855Z,83.93
2017-11-19T15:29:46.350Z,83.39
2017-11-19T15:32:14.605Z,83.04
2017-11-19T15:34:42.100Z,83.32
2017-11-19T15:37:10.275Z,83.54
2017-11-19T15:39:38.853Z,84.46
2017-11-19T15:42:07.621Z,85.03
2017-11-19T15:44:36.337Z,85.06
2017-11-19T15:47:04.976Z,85.10
2017-11-19T15:49:34.835Z,85.46
2017-11-19T15:52:03.243Z,85.90
2017-11-19T15:54:33.032Z,86.55
2017-11-19T15:57:01.435Z,87.18
2017-11-19T15:59:29.834Z,87.36
2017-11-19T16:01:58.482Z,87.09
2017-11-19T16:04:28.287Z,87.69
2017-11-19T16:06:57.941Z,87.18
2017-11-19T16:09:26.591Z,86.31
2017-11-19T16:11:55.141Z,86.51
2017-11-19T16:14:23.275Z,86.43
2017-11-19T16:16:51.813Z,87.41
2017-11-19T16:19:20.269Z,88.66
2017-11-19T16:21:48.755Z,87.02
2017-11-19T16:24:17.361Z,88.40
2017-11-19T16:26:45.674Z,89.34
2017-11-19T16:29:14.086Z,90.02
2017-11-19T16:31:42.647Z,90.86
2017-11-19T16:34:10.925Z,90.24
2017-11-19T16:36:39.482Z,90.97
2017-11-19T16:39:07.989Z,90.31
2017-11-19T16:41:36.453Z,90.62
2017-11-19T16:44:05.026Z,91.09
2017-11-19T16:46:33.628Z,91.09
2017-11-19T16:49:02.118Z,91.11
2017-11-19T16:51:30.742Z,91.67
2017-11-19T16:53:59.717Z,91.93
2017-11-19T16:56:28.443Z,91.43
2017-11-19T16:58:56.947Z,92.06
2017-11-19T17:01:25.911Z,93.08
2017-11-19T17:03:54.195Z,93.61
2017-11-19T17:06:22.587Z,93.46
2017-11-19T17:08:51.577Z,93.67
2017-11-19T17:11:20.344Z,92.95
2017-11-19T17:13:48.710Z,89.92
2017-11-19T17:16:17.465Z,89.94
2017-11-19T17:18:45.920Z,89.97
2017-11-19T17:21:14.572Z,90.13
2017-11-19T17:23:43.062Z,89.75
2017-11-19T17:26:11.528Z,89.55
2017-11-19T17:28:40.360Z,88.61
2017-11-19T17:31:08.934Z,88.00
2017-11-19T17:33:37.382Z,88.66
2017-11-19T17:36:11.353Z,89.07
2017-11-19T17:38:40.663Z,88.60
2017-11-19T17:41:09.006Z,87.53
2017-11-19T17:43:37.681Z,86.82
2017-11-19T17:46:06.205Z,88.17
2017-11-19T17:48:34.568Z,88.12
2017-11-19T17:51:03.007Z,89.13
2017-11-19T17:53:31.146Z,89.72
2017-11-19T17:55:59.408Z,90.05
2017-11-19T17:58:28.481Z,90.10
2017-11-19T18:00:56.719Z,90.39
2017-11-19T18:03:25.999Z,90.36
2017-11-19T18:05:54.790Z,90.68
2017-11-19T18:08:24.315Z,91.03
2017-11-19T18:10:52.791Z,91.50
2017-11-19T18:13:21.951Z,91.30
2017-11-19T18:15:51.857Z,91.55
2017-11-19T18:18:20.058Z,91.20
2017-11-19T18:20:48.654Z,91.03
2017-11-19T18:23:17.028Z,90.92
2017-11-19T18:25:45.545Z,90.54
2017-11-19T18:28:13.972Z,90.25
2017-11-19T18:30:43.888Z,90.02
2017-11-19T18:33:12.557Z,89.18
2017-11-19T18:35:41.468Z,90.18
2017-11-19T18:38:10.127Z,90.10
2017-11-19T18:40:39.439Z,89.13
2017-11-19T18:43:08.193Z,87.52
2017-11-19T18:45:36.588Z,88.12
2017-11-19T18:48:05.938Z,87.98
2017-11-19T18:50:34.764Z,87.88
2017-11-19T18:53:04.583Z,87.72
2017-11-19T18:55:34.279Z,87.54
2017-11-19T18:58:03.108Z,87.57
2017-11-19T19:00:32.661Z,86.84
2017-11-19T19:03:01.289Z,86.56
2017-11-19T19:05:28.913Z,86.19
2017-11-19T19:07:56.439Z,85.78
2017-11-19T19:10:23.928Z,85.09
2017-11-19T19:12:51.416Z,84.60
2017-11-19T19:15:19.826Z,83.23
2017-11-19T19:17:47.304Z,83.05
2017-11-19T19:20:14.791Z,82.58
2017-11-19T19:22:42.308Z,83.06
2017-11-19T19:25:09.795Z,83.55
2017-11-19T19:27:37.309Z,83.89
2017-11-19T19:30:04.784Z,83.95
2017-11-19T19:32:35.074Z,83.73
2017-11-19T19:35:04.181Z,84.40
2017-11-19T19:37:32.953Z,83.75
2017-11-19T19:40:01.071Z,83.55
2017-11-19T19:42:29.951Z,84.23
2017-11-19T19:44:57.512Z,83.34
2017-11-19T19:47:25.040Z,84.16
2017-11-19T19:49:52.529Z,82.45
2017-11-19T19:52:20.015Z,80.42
2017-11-19T19:54:47.548Z,81.92
2017-11-19T19:57:15.045Z,82.51
2017-11-19T19:59:42.528Z,82.66
2017-11-19T20:02:10.037Z,83.17
2017-11-19T20:04:37.531Z,83.55
2017-11-19T20:07:05.023Z,83.63
2017-11-19T20:09:32.535Z,83.67
2017-11-19T20:12:00.025Z,83.96
2017-11-19T20:14:27.520Z,83.98
2017-11-19T20:16:55.137Z,83.57
2017-11-19T20:19:22.621Z,83.45
2017-11-19T20:21:50.114Z,82.97
2017-11-19T20:24:17.632Z,83.16
2017-11-19T20:26:45.113Z,82.04
2017-11-19T20:29:12.604Z,81.30
2017-11-19T20:31:40.205Z,80.76
2017-11-19T20:34:07.687Z,80.49
2017-11-19T20:36:35.173Z,80.28
2017-11-19T20:39:02.707Z,80.56
2017-11-19T20:41:30.189Z,80.08
2017-11-19T20:43:57.668Z,79.80
2017-11-19T20:46:25.203Z,79.82
2017-11-19T20:48:52.714Z,79.94
2017-11-19T20:51:20.983Z,79.34
2017-11-19T20:53:48.518Z,79.50
2017-11-19T20:56:16.014Z,79.28
2017-11-19T20:58:43.506Z,79.04
2017-11-19T21:01:11.029Z,79.28
2017-11-19T21:03:38.572Z,78.18
2017-11-19T21:06:06.065Z,78.82
2017-11-19T21:08:33.606Z,78.71
2017-11-19T21:11:01.119Z,78.48
2017-11-19T21:13:28.606Z,78.43
2017-11-19T21:15:56.139Z,78.01
2017-11-19T21:18:23.616Z,77.96
2017-11-19T21:20:51.103Z,76.72
2017-11-19T21:23:18.648Z,76.79
2017-11-19T21:25:46.132Z,77.51
2017-11-19T21:28:13.625Z,77.62
2017-11-19T21:30:41.160Z,76.77
2017-11-19T21:33:08.644Z,77.42
2017-11-19T21:35:36.127Z,77.45
2017-11-19T21:38:03.663Z,77.18
2017-11-19T21:40:31.147Z,75.72
2017-11-19T21:42:58.654Z,76.26
2017-11-19T21:45:26.173Z,76.64
2017-11-19T21:47:53.654Z,76.05
2017-11-19T21:50:21.228Z,74.84
2017-11-19T21:52:48.780Z,74.79
2017-11-19T21:55:16.268Z,74.89
2017-11-19T21:57:43.750Z,74.72
2017-11-19T22:00:11.277Z,74.89
2017-11-19T22:02:38.761Z,76.00
2017-11-19T22:05:06.240Z,75.21
2017-11-19T22:07:33.769Z,76.45
2017-11-19T22:10:01.245Z,77.37
2017-11-19T22:12:28.728Z,77.67
2017-11-19T22:14:56.253Z,78.93
2017-11-19T22:17:23.741Z,78.70
2017-11-19T22:19:51.225Z,78.55
2017-11-19T22:22:18.746Z,78.40
2017-11-19T22:24:46.283Z,78.90
2017-11-19T22:27:13.778Z,78.09
2017-11-19T22:29:41.287Z,78.02
2017-11-19T22:32:08.776Z,77.55
2017-11-19T22:34:36.265Z,77.93
2017-11-19T22:37:03.792Z,78.37
2017-11-19T22:39:31.298Z,78.28
2017-11-19T22:41:58.814Z,78.37
2017-11-19T22:44:26.291Z,78.71
2017-11-19T22:46:53.825Z,78.34
2017-11-19T22:49:21.310Z,78.94
2017-11-19T22:51:48.800Z,78.92
2017-11-19T22:54:16.316Z,79.09
2017-11-19T22:56:43.802Z,78.87
2017-11-19T22:59:11.291Z,78.84
2017-11-19T23:01:38.892Z,78.96
2017-11-19T23:04:06.385Z,78.75
2017-11-19T23:06:33.868Z,78.92
2017-11-19T23:09:01.400Z,78.82
2017-11-19T23:11:29.012Z,78.53
2017-11-19T23:13:56.497Z,78.78
2017-11-19T23:16:23.973Z,78.18
2017-11-19T23:18:51.504Z,78.26
2017-11-19T23:21:18.996Z,78.12
2017-11-19T23:23:46.487Z,78.47
2017-11-19T23:26:14.014Z,78.68
2017-11-19T23:28:41.493Z,78.80
2017-11-19T23:31:08.983Z,79.13
2017-11-19T23:33:36.498Z,78.84
2017-11-19T23:36:04.000Z,79.38
2017-11-19T23:38:31.490Z,79.38
2017-11-19T23:40:59.001Z,79.61
2017-11-19T23:43:26.754Z,79.78
2017-11-19T23:45:54.226Z,79.79
2017-11-19T23:48:21.749Z,79.90
2017-11-19T23:50:49.236Z,80.03
2017-11-19T23:53:16.763Z,79.98
2017-11-19T23:55:44.304Z,80.14
2017-11-19T23:58:11.816Z,80.44
